createdAt,value
2022-10-01T00:01:37.544Z,13.61
2022-10-01T00:03:38.334Z,13.60
2022-10-01T00:05:36.607Z,13.55
2022-10-01T00:07:39.492Z,13.51
2022-10-01T00:09:37.560Z,13.42
2022-10-01T00:11:36.056Z,13.43
2022-10-01T00:13:35.026Z,13.50
2022-10-01T00:15:33.676Z,13.39
2022-10-01T00:17:31.961Z,13.40
2022-10-01T00:19:31.427Z,13.46
2022-10-01T00:21:32.062Z,13.46
2022-10-01T00:23:30.570Z,13.39
2022-10-01T00:25:28.732Z,13.45
2022-10-01T00:27:27.089Z,13.40
2022-10-01T00:29:25.327Z,13.46
2022-10-01T00:31:23.740Z,13.44
2022-10-01T00:33:22.006Z,13.41
2022-10-01T00:35:22.445Z,13.37
2022-10-01T00:37:22.366Z,13.28
2022-10-01T00:39:20.477Z,13.28
2022-10-01T00:41:19.758Z,13.28
2022-10-01T00:43:21.393Z,13.26
2022-10-01T00:45:19.694Z,13.25
2022-10-01T00:47:26.148Z,13.21
2022-10-01T00:49:29.192Z,13.21
2022-10-01T00:51:34.176Z,13.17
2022-10-01T00:53:32.683Z,13.11
2022-10-01T00:55:36.277Z,13.08
2022-10-01T00:57:35.930Z,13.12
2022-10-01T00:59:36.738Z,13.06
2022-10-01T01:01:39.007Z,13.11
2022-10-01T01:03:37.297Z,13.15
2022-10-01T01:05:35.589Z,13.04
2022-10-01T01:07:36.357Z,13.08
2022-10-01T01:09:37.460Z,13.14
2022-10-01T01:11:43.020Z,13.14
2022-10-01T01:13:48.570Z,13.10
2022-10-01T01:15:55.477Z,13.08
2022-10-01T01:17:59.048Z,13.13
2022-10-01T01:20:23.005Z,13.10
2022-10-01T01:22:24.530Z,13.06
2022-10-01T01:24:42.072Z,13.13
2022-10-01T01:26:56.165Z,13.03
2022-10-01T01:29:00.595Z,13.06
2022-10-01T01:31:04.117Z,13.12
2022-10-01T01:33:07.176Z,13.14
2022-10-01T01:35:09.439Z,13.14
2022-10-01T01:37:12.203Z,13.06
2022-10-01T01:39:12.959Z,13.10
2022-10-01T01:41:13.959Z,13.12
2022-10-01T01:43:20.617Z,13.09
2022-10-01T01:45:24.244Z,13.06
2022-10-01T01:47:24.552Z,13.10
2022-10-01T01:49:23.109Z,13.06
2022-10-01T01:51:27.183Z,12.99
2022-10-01T01:53:26.283Z,13.03
2022-10-01T01:55:26.407Z,13.01
2022-10-01T01:57:24.721Z,12.94
2022-10-01T01:59:23.192Z,12.93
2022-10-01T02:01:40.316Z,12.84
2022-10-01T02:03:38.523Z,12.87
2022-10-01T02:05:44.491Z,12.85
2022-10-01T02:08:15.854Z,12.77
2022-10-01T02:10:28.658Z,12.80
2022-10-01T02:12:37.254Z,12.79
2022-10-01T02:14:45.158Z,12.71
2022-10-01T02:16:50.424Z,12.82
2022-10-01T02:18:54.105Z,12.76
2022-10-01T02:20:57.771Z,12.74
2022-10-01T02:23:00.381Z,12.74
2022-10-01T02:25:01.064Z,12.69
2022-10-01T02:27:03.474Z,12.68
2022-10-01T02:29:09.246Z,12.70
2022-10-01T02:31:09.315Z,12.60
2022-10-01T02:33:11.009Z,12.67
2022-10-01T02:35:12.729Z,12.65
2022-10-01T02:37:12.805Z,12.73
2022-10-01T02:39:12.742Z,12.83
2022-10-01T02:41:13.711Z,12.86
2022-10-01T02:43:16.882Z,12.82
2022-10-01T02:45:19.596Z,12.85
2022-10-01T02:47:22.554Z,12.85
2022-10-01T02:49:22.300Z,12.81
2022-10-01T02:51:30.199Z,12.90
2022-10-01T02:53:35.984Z,12.91
2022-10-01T02:55:39.235Z,12.97
2022-10-01T02:57:36.942Z,13.06
2022-10-01T02:59:35.207Z,12.97
2022-10-01T03:01:33.608Z,12.98
2022-10-01T03:03:32.637Z,13.07
2022-10-01T03:05:32.349Z,13.09
2022-10-01T03:07:32.299Z,13.04
2022-10-01T03:09:30.507Z,13.03
2022-10-01T03:11:28.779Z,13.12
2022-10-01T03:13:27.584Z,13.14
2022-10-01T03:15:25.802Z,13.01
2022-10-01T03:17:24.203Z,13.03
2022-10-01T03:19:22.795Z,13.08
2022-10-01T03:21:22.470Z,13.05
2022-10-01T03:23:20.643Z,12.93
2022-10-01T03:25:18.867Z,13.08
2022-10-01T03:27:17.732Z,13.11
2022-10-01T03:29:16.070Z,13.08
2022-10-01T03:31:14.315Z,13.09
2022-10-01T03:33:12.466Z,13.13
2022-10-01T03:35:11.103Z,13.01
2022-10-01T03:37:10.982Z,13.05
2022-10-01T03:39:09.262Z,13.14
2022-10-01T03:41:07.694Z,13.09
2022-10-01T03:43:05.916Z,13.04
2022-10-01T03:45:04.408Z,12.95
2022-10-01T03:47:02.577Z,13.01
2022-10-01T03:49:00.959Z,12.95
2022-10-01T03:51:00.718Z,12.83
2022-10-01T03:53:00.293Z,12.73
2022-10-01T03:54:58.495Z,12.69
2022-10-01T03:56:56.743Z,12.60
2022-10-01T03:58:54.878Z,12.63
2022-10-01T04:00:55.319Z,12.57
2022-10-01T04:02:53.547Z,12.48
2022-10-01T04:04:51.782Z,12.46
2022-10-01T04:06:50.125Z,12.46
2022-10-01T04:08:51.160Z,12.30
2022-10-01T04:10:49.546Z,12.33
2022-10-01T04:12:47.983Z,12.33
2022-10-01T04:14:46.072Z,12.28
2022-10-01T04:16:44.306Z,12.34
2022-10-01T04:18:42.610Z,12.41
2022-10-01T04:20:40.654Z,12.42
2022-10-01T04:22:42.172Z,12.32
2022-10-01T04:24:41.758Z,12.40
2022-10-01T04:26:40.059Z,12.39
2022-10-01T04:28:38.132Z,12.42
2022-10-01T04:30:37.955Z,12.44
2022-10-01T04:32:36.684Z,12.50
2022-10-01T04:34:48.745Z,12.55
2022-10-01T04:36:47.056Z,12.53
2022-10-01T04:38:45.220Z,12.50
2022-10-01T04:40:45.044Z,12.51
2022-10-01T04:42:44.729Z,12.66
2022-10-01T04:44:43.023Z,12.61
2022-10-01T04:46:41.245Z,12.76
2022-10-01T04:48:39.550Z,12.90
2022-10-01T04:50:37.777Z,12.98
2022-10-01T04:52:36.055Z,13.17
2022-10-01T04:54:34.232Z,13.24
2022-10-01T04:56:33.783Z,13.38
2022-10-01T04:58:32.162Z,13.87
2022-10-01T05:00:31.557Z,14.25
2022-10-01T05:02:30.333Z,14.52
2022-10-01T05:04:28.652Z,14.84
2022-10-01T05:06:26.787Z,14.64
2022-10-01T05:08:25.005Z,14.64
2022-10-01T05:10:25.076Z,14.38
2022-10-01T05:12:25.509Z,14.16
2022-10-01T05:14:24.715Z,14.11
2022-10-01T05:16:23.514Z,14.02
2022-10-01T05:18:23.754Z,14.11
2022-10-01T05:20:24.061Z,14.46
2022-10-01T05:22:22.707Z,14.73
2022-10-01T05:24:20.994Z,14.32
2022-10-01T05:26:19.152Z,14.56
2022-10-01T05:28:22.637Z,14.36
2022-10-01T05:30:24.405Z,14.62
2022-10-01T05:32:22.746Z,15.18
2022-10-01T05:34:20.928Z,15.30
2022-10-01T05:36:19.220Z,15.54
2022-10-01T05:38:17.430Z,15.47
2022-10-01T05:40:15.775Z,15.33
2022-10-01T05:42:14.209Z,15.35
2022-10-01T05:44:13.693Z,15.46
2022-10-01T05:46:12.315Z,15.48
2022-10-01T05:48:11.021Z,15.47
2022-10-01T05:50:10.696Z,15.41
2022-10-01T05:52:10.893Z,15.16
2022-10-01T05:54:12.228Z,15.24
2022-10-01T05:56:11.538Z,15.77
2022-10-01T05:58:11.818Z,16.32
2022-10-01T06:00:14.730Z,16.89
2022-10-01T06:02:13.090Z,17.14
2022-10-01T06:04:11.520Z,17.40
2022-10-01T06:06:09.804Z,17.45
2022-10-01T06:08:09.664Z,17.17
2022-10-01T06:10:09.355Z,17.01
2022-10-01T06:12:10.701Z,17.32
2022-10-01T06:14:11.979Z,17.42
2022-10-01T06:16:11.845Z,17.77
2022-10-01T06:18:11.228Z,17.87
2022-10-01T06:20:12.014Z,17.75
2022-10-01T06:22:10.411Z,17.96
2022-10-01T06:24:08.834Z,18.13
2022-10-01T06:26:08.299Z,18.07
2022-10-01T06:28:08.756Z,18.15
2022-10-01T06:30:08.369Z,18.61
2022-10-01T06:32:12.966Z,18.62
2022-10-01T06:34:11.179Z,18.12
2022-10-01T06:36:09.358Z,18.03
2022-10-01T06:38:09.739Z,17.75
2022-10-01T06:40:09.110Z,17.89
2022-10-01T06:42:07.361Z,18.16
2022-10-01T06:44:05.657Z,18.47
2022-10-01T06:46:05.154Z,18.68
2022-10-01T06:48:08.245Z,18.85
2022-10-01T06:50:07.654Z,18.80
2022-10-01T06:52:23.135Z,18.80
2022-10-01T06:54:21.867Z,18.75
2022-10-01T06:56:20.167Z,18.38
2022-10-01T06:58:20.355Z,18.07
2022-10-01T07:00:21.827Z,18.40
2022-10-01T07:02:29.035Z,18.57
2022-10-01T07:04:28.791Z,18.67
2022-10-01T07:06:27.224Z,18.64
2022-10-01T07:08:25.413Z,18.69
2022-10-01T07:10:24.387Z,18.86
2022-10-01T07:12:23.118Z,19.20
2022-10-01T07:14:21.620Z,19.36
2022-10-01T07:16:20.662Z,19.74
2022-10-01T07:18:18.886Z,19.71
2022-10-01T07:20:19.374Z,19.78
2022-10-01T07:22:20.457Z,20.37
2022-10-01T07:24:18.862Z,20.96
2022-10-01T07:26:17.498Z,21.20
2022-10-01T07:28:18.440Z,20.74
2022-10-01T07:30:17.415Z,21.27
2022-10-01T07:32:16.186Z,21.86
2022-10-01T07:34:14.868Z,23.12
2022-10-01T07:36:14.771Z,23.67
2022-10-01T07:38:12.960Z,23.12
2022-10-01T07:40:11.513Z,22.55
2022-10-01T07:42:09.779Z,22.11
2022-10-01T07:44:08.158Z,21.84
2022-10-01T07:46:07.305Z,21.90
2022-10-01T07:48:05.992Z,21.62
2022-10-01T07:50:07.273Z,21.72
2022-10-01T07:52:12.335Z,21.40
2022-10-01T07:54:11.614Z,21.71
2022-10-01T07:56:09.894Z,21.82
2022-10-01T07:58:08.183Z,21.41
2022-10-01T08:00:08.280Z,21.56
2022-10-01T08:02:14.921Z,21.28
2022-10-01T08:04:30.443Z,21.16
2022-10-01T08:06:28.654Z,21.07
2022-10-01T08:08:28.260Z,20.93
2022-10-01T08:10:27.005Z,20.82
2022-10-01T08:12:28.897Z,20.75
2022-10-01T08:14:28.449Z,20.61
2022-10-01T08:16:29.176Z,20.50
2022-10-01T08:18:27.568Z,20.39
2022-10-01T08:20:25.712Z,20.13
2022-10-01T08:22:24.124Z,20.03
2022-10-01T08:24:23.626Z,20.05
2022-10-01T08:26:22.306Z,20.01
2022-10-01T08:28:21.069Z,20.01
2022-10-01T08:30:19.578Z,20.03
2022-10-01T08:32:18.222Z,19.97
2022-10-01T08:34:17.015Z,19.97
2022-10-01T08:36:17.118Z,19.87
2022-10-01T08:38:16.237Z,19.83
2022-10-01T08:40:16.802Z,19.71
2022-10-01T08:42:27.556Z,19.50
2022-10-01T08:44:32.369Z,19.58
2022-10-01T08:46:36.420Z,19.72
2022-10-01T08:48:40.420Z,19.76
2022-10-01T08:50:48.380Z,19.80
2022-10-01T08:52:53.877Z,19.50
2022-10-01T08:54:58.004Z,19.56
2022-10-01T08:57:01.295Z,19.51
2022-10-01T08:59:02.187Z,19.67
2022-10-01T09:01:00.605Z,19.60
2022-10-01T09:03:02.160Z,19.40
2022-10-01T09:05:04.096Z,19.30
2022-10-01T09:07:12.615Z,19.25
2022-10-01T09:09:29.626Z,19.27
2022-10-01T09:11:47.375Z,19.24
2022-10-01T09:14:03.877Z,19.11
2022-10-01T09:16:10.453Z,19.01
2022-10-01T09:18:19.531Z,18.80
2022-10-01T09:20:25.265Z,18.73
2022-10-01T09:22:35.807Z,18.69
2022-10-01T09:24:44.958Z,18.63
2022-10-01T09:26:48.231Z,18.61
2022-10-01T09:28:52.986Z,18.61
2022-10-01T09:30:57.450Z,18.68
2022-10-01T09:33:01.171Z,18.69
2022-10-01T09:35:04.719Z,18.65
2022-10-01T09:37:14.854Z,18.72
2022-10-01T09:39:20.033Z,18.71
2022-10-01T09:41:18.530Z,18.61
2022-10-01T09:43:19.934Z,18.59
2022-10-01T09:45:26.564Z,18.48
2022-10-01T09:47:26.749Z,18.61
2022-10-01T09:49:31.634Z,18.68
2022-10-01T09:51:40.010Z,18.70
2022-10-01T09:53:44.935Z,18.76
2022-10-01T09:55:47.094Z,18.88
2022-10-01T09:57:49.722Z,18.91
2022-10-01T09:59:54.350Z,18.81
2022-10-01T10:01:59.165Z,18.82
2022-10-01T10:03:59.070Z,18.80
2022-10-01T10:05:59.907Z,18.80
2022-10-01T10:08:01.910Z,18.83
2022-10-01T10:10:09.890Z,18.83
2022-10-01T10:12:11.177Z,18.73
2022-10-01T10:14:20.037Z,18.64
2022-10-01T10:16:26.618Z,18.51
2022-10-01T10:18:30.849Z,18.38
2022-10-01T10:20:31.105Z,18.38
2022-10-01T10:22:30.600Z,18.39
2022-10-01T10:24:34.191Z,18.43
2022-10-01T10:26:34.959Z,18.37
2022-10-01T10:28:44.231Z,18.42
2022-10-01T10:30:44.307Z,18.33
2022-10-01T10:32:44.388Z,18.28
2022-10-01T10:34:47.538Z,18.38
2022-10-01T10:36:47.367Z,18.44
2022-10-01T10:38:49.658Z,18.36
2022-10-01T10:40:48.069Z,18.34
2022-10-01T10:42:50.882Z,18.35
2022-10-01T10:44:50.912Z,18.32
2022-10-01T10:46:50.515Z,18.32
2022-10-01T10:48:58.750Z,18.30
2022-10-01T10:51:03.402Z,18.26
2022-10-01T10:53:12.527Z,18.27
2022-10-01T10:55:23.492Z,18.32
2022-10-01T10:57:28.000Z,18.36
2022-10-01T10:59:26.323Z,18.41
2022-10-01T11:01:29.474Z,18.36
2022-10-01T11:03:30.144Z,18.38
2022-10-01T11:05:32.114Z,18.44
2022-10-01T11:07:33.466Z,18.51
2022-10-01T11:09:44.386Z,18.46
2022-10-01T11:11:52.754Z,18.37
2022-10-01T11:14:09.608Z,18.38
2022-10-01T11:16:27.319Z,18.51
2022-10-01T11:18:50.587Z,18.48
2022-10-01T11:21:00.806Z,18.54
2022-10-01T11:23:15.912Z,18.57
2022-10-01T11:25:30.763Z,18.66
2022-10-01T11:27:40.937Z,18.79
2022-10-01T11:29:53.083Z,18.75
2022-10-01T11:32:02.817Z,18.80
2022-10-01T11:34:22.340Z,18.77
2022-10-01T11:36:26.615Z,18.89
2022-10-01T11:38:44.359Z,18.77
2022-10-01T11:40:44.637Z,18.72
2022-10-01T11:42:45.416Z,18.63
2022-10-01T11:44:47.998Z,18.56
2022-10-01T11:46:54.576Z,18.61
2022-10-01T11:48:58.457Z,18.78
2022-10-01T11:51:01.405Z,18.92
2022-10-01T11:53:05.449Z,18.97
2022-10-01T11:55:29.417Z,19.24
2022-10-01T11:57:46.036Z,19.53
2022-10-01T11:59:50.205Z,19.67
2022-10-01T12:01:53.328Z,19.58
2022-10-01T12:04:06.264Z,19.74
2022-10-01T12:06:09.489Z,19.84
2022-10-01T12:08:14.877Z,19.80
2022-10-01T12:10:29.644Z,19.80
2022-10-01T12:12:33.500Z,19.85
2022-10-01T12:14:39.337Z,19.84
2022-10-01T12:16:45.226Z,19.92
2022-10-01T12:18:52.209Z,19.91
2022-10-01T12:20:53.723Z,19.89
2022-10-01T12:22:53.214Z,19.81
2022-10-01T12:24:51.772Z,19.70
2022-10-01T12:27:01.650Z,19.78
2022-10-01T12:29:07.629Z,20.16
2022-10-01T12:31:12.614Z,20.48
2022-10-01T12:33:38.172Z,20.33
2022-10-01T12:35:52.128Z,20.34
2022-10-01T12:38:04.510Z,20.29
2022-10-01T12:40:17.903Z,20.12
2022-10-01T12:42:33.217Z,19.98
2022-10-01T12:44:53.633Z,19.96
2022-10-01T12:47:05.776Z,19.77
2022-10-01T12:49:11.964Z,19.59
2022-10-01T12:51:33.585Z,19.43
2022-10-01T12:53:40.417Z,19.38
2022-10-01T12:56:09.148Z,19.29
2022-10-01T12:58:20.875Z,19.11
2022-10-01T13:00:22.530Z,18.78
2022-10-01T13:02:39.472Z,18.44
2022-10-01T13:04:50.086Z,18.16
2022-10-01T13:07:06.111Z,17.91
2022-10-01T13:09:13.956Z,17.92
2022-10-01T13:11:26.503Z,18.04
2022-10-01T13:13:33.667Z,18.29
2022-10-01T13:15:37.863Z,18.46
2022-10-01T13:17:46.208Z,18.54
2022-10-01T13:19:53.433Z,18.61
2022-10-01T13:21:58.894Z,18.70
2022-10-01T13:24:05.495Z,18.79
2022-10-01T13:26:10.595Z,18.85
2022-10-01T13:28:18.009Z,18.80
2022-10-01T13:30:20.142Z,18.77
2022-10-01T13:32:34.730Z,18.75
2022-10-01T13:34:39.415Z,18.82
2022-10-01T13:36:38.118Z,18.76
2022-10-01T13:38:43.958Z,18.81
2022-10-01T13:40:42.487Z,18.85
2022-10-01T13:42:45.954Z,19.03
2022-10-01T13:44:44.229Z,19.03
2022-10-01T13:46:53.732Z,19.13
2022-10-01T13:48:52.565Z,19.21
2022-10-01T13:51:04.206Z,19.37
2022-10-01T13:53:15.367Z,19.44
2022-10-01T13:55:26.953Z,19.47
2022-10-01T13:57:32.427Z,19.50
2022-10-01T13:59:34.591Z,19.44
2022-10-01T14:01:41.323Z,19.42
2022-10-01T14:03:50.776Z,19.48
2022-10-01T14:05:57.336Z,19.38
2022-10-01T14:08:00.124Z,19.37
2022-10-01T14:10:00.439Z,19.37
2022-10-01T14:12:23.274Z,19.32
2022-10-01T14:14:42.845Z,19.30
2022-10-01T14:16:43.904Z,19.20
2022-10-01T14:18:48.934Z,19.05
2022-10-01T14:20:56.011Z,19.12
2022-10-01T14:23:10.292Z,19.07
2022-10-01T14:25:22.948Z,19.24
2022-10-01T14:27:27.937Z,19.23
2022-10-01T14:29:44.074Z,19.16
2022-10-01T14:31:55.065Z,19.28
2022-10-01T14:34:21.977Z,19.27
2022-10-01T14:36:23.987Z,19.24
2022-10-01T14:38:23.320Z,19.17
2022-10-01T14:40:24.365Z,19.14
2022-10-01T14:42:22.653Z,19.24
2022-10-01T14:44:26.750Z,19.27
2022-10-01T14:46:24.786Z,19.30
2022-10-01T14:48:24.167Z,19.29
2022-10-01T14:50:23.930Z,19.29
2022-10-01T14:52:25.624Z,19.28
2022-10-01T14:54:24.809Z,19.32
2022-10-01T14:56:23.683Z,19.26
2022-10-01T14:58:27.633Z,19.21
2022-10-01T15:00:29.641Z,19.16
2022-10-01T15:02:29.069Z,19.12
2022-10-01T15:04:27.391Z,19.15
2022-10-01T15:06:30.099Z,19.19
2022-10-01T15:08:39.381Z,19.16
2022-10-01T15:10:37.739Z,19.13
2022-10-01T15:12:41.130Z,19.11
2022-10-01T15:14:39.481Z,19.02
2022-10-01T15:16:38.806Z,18.88
2022-10-01T15:18:38.733Z,18.89
2022-10-01T15:20:36.918Z,18.87
2022-10-01T15:22:36.452Z,18.72
2022-10-01T15:24:39.753Z,18.64
2022-10-01T15:26:38.041Z,18.65
2022-10-01T15:28:37.319Z,18.64
2022-10-01T15:30:37.490Z,18.53
2022-10-01T15:32:35.679Z,18.42
2022-10-01T15:34:38.828Z,18.44
2022-10-01T15:36:37.597Z,18.43
2022-10-01T15:38:37.934Z,18.36
2022-10-01T15:40:37.590Z,18.26
2022-10-01T15:42:37.439Z,18.20
2022-10-01T15:44:47.103Z,18.28
2022-10-01T15:46:45.330Z,18.33
2022-10-01T15:48:43.515Z,18.28
2022-10-01T15:50:42.080Z,18.24
2022-10-01T15:52:50.593Z,18.31
2022-10-01T15:55:00.011Z,18.33
2022-10-01T15:56:59.227Z,18.22
2022-10-01T15:59:00.638Z,18.10
2022-10-01T16:01:03.525Z,18.00
2022-10-01T16:03:01.972Z,18.01
2022-10-01T16:05:06.237Z,18.06
2022-10-01T16:07:05.371Z,17.95
2022-10-01T16:09:06.916Z,17.80
2022-10-01T16:11:20.284Z,17.70
2022-10-01T16:13:31.240Z,17.66
2022-10-01T16:15:30.886Z,17.62
2022-10-01T16:17:31.907Z,17.59
2022-10-01T16:19:31.787Z,17.56
2022-10-01T16:21:30.108Z,17.53
2022-10-01T16:23:35.758Z,17.48
2022-10-01T16:25:45.505Z,17.43
2022-10-01T16:27:48.546Z,17.41
2022-10-01T16:29:53.710Z,17.41
2022-10-01T16:31:52.517Z,17.41
2022-10-01T16:33:50.777Z,17.37
2022-10-01T16:35:49.623Z,17.29
2022-10-01T16:37:50.218Z,17.35
2022-10-01T16:39:48.554Z,17.36
2022-10-01T16:42:06.338Z,17.24
2022-10-01T16:44:11.777Z,17.21
2022-10-01T16:46:10.183Z,17.17
2022-10-01T16:48:15.767Z,17.11
2022-10-01T16:50:17.399Z,17.22
2022-10-01T16:52:16.876Z,17.12
2022-10-01T16:54:23.579Z,17.13
2022-10-01T16:56:26.893Z,17.03
2022-10-01T16:58:25.698Z,17.06
2022-10-01T17:00:28.075Z,16.99
2022-10-01T17:02:26.998Z,16.98
2022-10-01T17:04:30.356Z,16.98
2022-10-01T17:06:31.076Z,17.04
2022-10-01T17:08:29.278Z,17.10
2022-10-01T17:10:28.321Z,17.13
2022-10-01T17:12:27.065Z,17.18
2022-10-01T17:14:25.880Z,17.21
2022-10-01T17:16:25.840Z,17.19
2022-10-01T17:18:24.222Z,17.19
2022-10-01T17:20:23.195Z,17.28
2022-10-01T17:22:21.634Z,17.27
2022-10-01T17:24:19.938Z,17.33
2022-10-01T17:26:18.289Z,17.37
2022-10-01T17:28:18.911Z,17.36
2022-10-01T17:30:17.816Z,17.29
2022-10-01T17:32:19.202Z,17.38
2022-10-01T17:34:19.717Z,17.42
2022-10-01T17:36:18.019Z,17.44
2022-10-01T17:38:16.248Z,17.42
2022-10-01T17:40:14.612Z,17.33
2022-10-01T17:42:15.197Z,17.27
2022-10-01T17:44:13.598Z,17.22
2022-10-01T17:46:11.917Z,17.18
2022-10-01T17:48:12.045Z,17.23
2022-10-01T17:50:10.565Z,17.35
2022-10-01T17:52:08.784Z,17.38
2022-10-01T17:54:07.054Z,17.29
2022-10-01T17:56:07.226Z,17.36
2022-10-01T17:58:06.753Z,17.41
2022-10-01T18:00:06.336Z,17.33
2022-10-01T18:02:36.705Z,17.36
2022-10-01T18:04:33.270Z,17.38
2022-10-01T18:06:31.646Z,17.22
2022-10-01T18:08:51.174Z,17.30
2022-10-01T18:10:48.323Z,17.34
2022-10-01T18:12:46.651Z,17.21
2022-10-01T18:14:45.091Z,17.20
2022-10-01T18:16:43.366Z,17.12
2022-10-01T18:21:04.682Z,17.16
2022-10-01T18:23:03.193Z,17.15
2022-10-01T18:25:03.543Z,17.04
2022-10-01T18:27:02.102Z,16.97
2022-10-01T18:29:00.211Z,17.00
2022-10-01T18:31:18.821Z,16.94
2022-10-01T18:33:17.064Z,17.02
2022-10-01T18:35:21.723Z,17.01
2022-10-01T18:37:34.891Z,16.93
2022-10-01T18:39:40.915Z,16.91
2022-10-01T18:41:41.060Z,17.05
2022-10-01T18:43:42.395Z,16.98
2022-10-01T18:45:56.649Z,16.93
2022-10-01T18:48:10.073Z,16.92
2022-10-01T18:50:19.753Z,16.87
2022-10-01T18:52:28.788Z,16.82
2022-10-01T18:54:55.658Z,16.80
2022-10-01T18:57:03.769Z,16.81
2022-10-01T18:59:25.943Z,16.89
2022-10-01T19:01:36.462Z,16.89
2022-10-01T19:04:00.204Z,16.99
2022-10-01T19:06:30.908Z,16.91
2022-10-01T19:08:49.473Z,16.91
2022-10-01T19:13:11.922Z,16.80
2022-10-01T19:15:20.898Z,16.71
2022-10-01T19:17:33.381Z,16.74
2022-10-01T19:19:45.214Z,16.72
2022-10-01T19:21:51.297Z,16.74
2022-10-01T19:24:41.586Z,16.78
2022-10-01T19:26:44.715Z,16.92
2022-10-01T19:28:56.892Z,16.90
2022-10-01T19:31:04.452Z,16.91
2022-10-01T19:33:06.277Z,16.95
2022-10-01T19:35:15.795Z,16.97
2022-10-01T19:37:30.864Z,16.98
2022-10-01T19:39:34.453Z,17.03
2022-10-01T19:41:39.415Z,17.10
2022-10-01T19:43:41.382Z,17.25
2022-10-01T19:45:51.216Z,17.17
2022-10-01T19:47:56.041Z,16.87
2022-10-01T19:49:58.339Z,16.81
2022-10-01T19:51:58.954Z,16.73
2022-10-01T19:54:01.281Z,16.61
2022-10-01T19:56:01.620Z,16.56
2022-10-01T19:57:59.861Z,16.52
2022-10-01T20:00:03.530Z,16.45
2022-10-01T20:02:06.401Z,16.40
2022-10-01T20:04:18.421Z,16.28
2022-10-01T20:06:26.250Z,16.19
2022-10-01T20:08:35.200Z,16.21
2022-10-01T20:10:39.764Z,16.25
2022-10-01T20:12:48.273Z,16.24
2022-10-01T20:15:10.003Z,16.17
2022-10-01T20:17:20.239Z,16.24
2022-10-01T20:19:26.722Z,16.31
2022-10-01T20:21:38.872Z,16.28
2022-10-01T20:23:44.177Z,16.21
2022-10-01T20:25:50.504Z,16.15
2022-10-01T20:28:00.667Z,16.08
2022-10-01T20:30:05.756Z,16.02
2022-10-01T20:32:13.937Z,16.09
2022-10-01T20:34:23.254Z,16.09
2022-10-01T20:36:27.859Z,16.03
2022-10-01T20:38:32.100Z,16.07
2022-10-01T20:40:32.882Z,15.99
2022-10-01T20:42:38.097Z,15.95
2022-10-01T20:44:39.481Z,15.95
2022-10-01T20:46:43.379Z,16.01
2022-10-01T20:48:46.431Z,16.02
2022-10-01T20:50:51.107Z,15.99
2022-10-01T20:52:56.898Z,15.97
2022-10-01T20:55:03.694Z,16.00
2022-10-01T20:57:09.841Z,16.01
2022-10-01T20:59:13.802Z,15.99
2022-10-01T21:01:17.305Z,15.98
2022-10-01T21:03:31.962Z,16.00
2022-10-01T21:05:31.515Z,15.99
2022-10-01T21:07:37.226Z,15.97
2022-10-01T21:09:41.079Z,15.97
2022-10-01T21:11:46.895Z,16.00
2022-10-01T21:13:53.256Z,16.02
2022-10-01T21:16:03.471Z,15.96
2022-10-01T21:18:09.174Z,15.99
2022-10-01T21:20:27.118Z,16.06
2022-10-01T21:22:43.045Z,16.06
2022-10-01T21:24:53.446Z,15.99
2022-10-01T21:27:04.497Z,16.00
2022-10-01T21:29:35.345Z,15.98
2022-10-01T21:31:46.206Z,16.01
2022-10-01T21:33:52.121Z,16.02
2022-10-01T21:35:55.121Z,15.99
2022-10-01T21:38:05.973Z,16.00
2022-10-01T21:40:17.187Z,16.00
2022-10-01T21:42:17.874Z,16.03
2022-10-01T21:44:54.453Z,16.07
2022-10-01T21:47:02.057Z,16.02
2022-10-01T21:49:09.714Z,15.93
2022-10-01T21:51:18.063Z,15.92
2022-10-01T21:53:31.200Z,15.85
2022-10-01T21:56:00.697Z,15.86
2022-10-01T21:58:14.693Z,15.72
2022-10-01T22:00:21.198Z,15.52
2022-10-01T22:02:34.767Z,15.46
2022-10-01T22:04:40.293Z,15.62
2022-10-01T22:06:45.713Z,15.73
2022-10-01T22:08:55.196Z,15.74
2022-10-01T22:10:58.029Z,15.78
2022-10-01T22:13:00.436Z,15.70
2022-10-01T22:15:00.354Z,15.76
2022-10-01T22:17:03.567Z,15.79
2022-10-01T22:19:08.235Z,15.86
2022-10-01T22:21:10.829Z,15.85
2022-10-01T22:23:13.458Z,15.93
2022-10-01T22:25:15.000Z,15.86
2022-10-01T22:27:18.990Z,15.92
2022-10-01T22:29:21.722Z,15.85
2022-10-01T22:31:25.901Z,15.82
2022-10-01T22:33:29.052Z,15.84
2022-10-01T22:35:32.280Z,15.84
2022-10-01T22:37:34.674Z,15.74
2022-10-01T22:39:38.362Z,15.65
2022-10-01T22:41:42.579Z,15.59
2022-10-01T22:43:42.801Z,15.65
2022-10-01T22:45:53.646Z,15.58
2022-10-01T22:48:12.826Z,15.50
2022-10-01T22:50:33.242Z,15.64
2022-10-01T22:52:39.278Z,15.61
2022-10-01T22:54:48.745Z,15.66
2022-10-01T22:56:57.426Z,15.60
2022-10-01T22:59:08.834Z,15.61
2022-10-01T23:01:16.746Z,15.64
2022-10-01T23:03:24.907Z,15.57
2022-10-01T23:05:41.907Z,15.55
2022-10-01T23:07:49.401Z,15.50
2022-10-01T23:09:56.351Z,15.46
2022-10-01T23:12:02.252Z,15.51
2022-10-01T23:14:08.200Z,15.48
2022-10-01T23:16:16.743Z,15.48
2022-10-01T23:18:29.207Z,15.33
2022-10-01T23:20:31.419Z,15.35
2022-10-01T23:22:42.671Z,15.29
2022-10-01T23:24:58.640Z,15.38
2022-10-01T23:27:09.514Z,15.33
2022-10-01T23:29:23.926Z,15.27
2022-10-01T23:31:32.723Z,15.11
2022-10-01T23:33:50.244Z,15.21
2022-10-01T23:35:55.857Z,15.23
2022-10-01T23:38:12.370Z,15.21
2022-10-01T23:40:14.240Z,15.20
2022-10-01T23:42:27.081Z,15.26
2022-10-01T23:44:37.534Z,15.23
2022-10-01T23:46:37.836Z,15.24
2022-10-01T23:48:42.202Z,15.25
2022-10-01T23:50:42.654Z,15.23
2022-10-01T23:52:46.663Z,15.21
2022-10-01T23:54:51.116Z,15.18
2022-10-01T23:56:54.283Z,15.13
2022-10-01T23:58:58.538Z,15.13
